Time;durP1;ratioP1;P1;durP2;ratioP2;P2;SDS_P1;SDS_P2;PMS_P1;PMS_P2;Temp;Humidity;BMP_temperature;BMP_pressure;BME280_temperature;BME280_humidity;BME280_pressure;Samples;Min_cycle;Max_cycle;Signal;HPM_P1;HPM_P2
2022/03/24 00:01:29;;;;;;;;;;;7.70;75.90;;;7.11;51.83;98285.06;5053697;28;20335;-50
2022/03/24 00:03:54;;;;;;;;;;;7.60;77.60;;;6.93;52.26;98278.22;5054146;28;20213;-48
2022/03/24 00:06:20;;;;;;;;;;;7.50;78.00;;;6.88;51.68;98282.63;5050607;28;20373;-45
2022/03/24 00:08:46;;;;;;;;;;;7.40;77.50;;;6.82;51.92;98280.94;5055298;28;19924;-51
2022/03/24 00:11:12;;;;;;;;;;;7.30;77.60;;;6.81;51.28;98279.16;5052035;28;20614;-47
2022/03/24 00:13:38;;;;;;;;;;;7.30;77.00;;;6.81;50.72;98283.56;5050258;28;19921;-50
2022/03/24 00:16:04;;;;;;;;;;;7.30;76.60;;;6.78;50.66;98276.56;5053463;28;19970;-50
2022/03/24 00:18:32;;;;;;;;;;;7.30;76.50;;;6.75;51.21;98270.47;5054782;28;19924;-47
2022/03/24 00:21:01;;;;;;;;;;;7.20;77.10;;;6.70;52.59;98275.78;5053456;28;19935;-49
2022/03/24 00:23:26;;;;;;;;;;;7.20;78.50;;;6.58;53.03;98273.22;5053343;28;19921;-49
2022/03/24 00:25:52;;;;;;;;;;;7.20;78.80;;;6.49;53.97;98271.53;5054641;28;19924;-47
2022/03/24 00:28:17;;;;;;;;;;;7.10;79.60;;;6.40;54.24;98266.38;5051883;28;20023;-50
2022/03/24 00:30:44;;;;;;;;;;;7.00;80.10;;;6.29;54.54;98266.44;5053079;28;19956;-47
2022/03/24 00:33:10;;;;;;;;;;;6.80;80.40;;;6.18;55.34;98255.16;5052419;28;19916;-50
2022/03/24 00:35:37;;;;;;;;;;;6.70;81.10;;;6.13;55.82;98272.63;5054177;28;19916;-49
2022/03/24 00:38:02;;;;;;;;;;;6.60;81.70;;;6.02;56.38;98268.31;5054867;28;20385;-47
2022/03/24 00:40:28;;;;;;;;;;;6.50;82.30;;;5.92;57.10;98259.63;5051927;28;19970;-50
2022/03/24 00:42:54;;;;;;;;;;;6.40;82.90;;;5.90;57.99;98270.94;5050976;28;20566;-50
2022/03/24 00:45:20;;;;;;;;;;;6.40;83.60;;;5.86;58.46;98264.84;5048055;28;19925;-45
2022/03/24 00:47:46;;;;;;;;;;;6.40;84.00;;;5.80;58.33;98264.03;5051336;28;19932;-50
2022/03/24 00:50:12;;;;;;;;;;;6.40;84.00;;;5.86;57.46;98269.22;5052652;28;19920;-48
2022/03/24 00:52:42;;;;;;;;;;;6.40;83.30;;;5.87;57.19;98258.75;5051778;28;19924;-50
2022/03/24 00:55:16;;;;;;;;;;;6.40;82.80;;;5.89;56.88;98267.47;5048930;28;20321;-47
2022/03/24 00:57:43;;;;;;;;;;;6.40;82.80;;;5.90;56.50;98256.13;5050446;28;20020;-51
2022/03/24 01:00:11;;;;;;;;;;;6.40;82.60;;;5.91;56.95;98263.09;5052868;28;19962;-50
2022/03/24 01:02:37;;;;;;;;;;;6.40;82.80;;;5.87;56.99;98256.16;5053440;28;19924;-47
2022/03/24 01:05:07;;;;;;;;;;;6.40;82.90;;;5.88;56.58;98254.38;5057487;28;19916;-48
2022/03/24 01:07:35;;;;;;;;;;;6.40;82.70;;;5.85;57.79;98249.16;5056845;28;19952;-49
2022/03/24 01:10:03;;;;;;;;;;;6.40;83.70;;;5.81;59.13;98256.16;5051113;28;19969;-51
2022/03/24 01:12:28;;;;;;;;;;;6.30;84.90;;;5.76;60.93;98246.56;5054571;28;19954;-46
2022/03/24 01:14:56;;;;;;;;;;;6.30;86.20;;;5.70;61.87;98247.47;5052139;28;20361;-50
2022/03/24 01:17:23;;;;;;;;;;;6.30;86.70;;;5.63;62.21;98243.16;5055640;28;19917;-48
2022/03/24 01:19:49;;;;;;;;;;;6.20;87.10;;;5.58;61.46;98235.34;5042415;28;20373;-47
2022/03/24 01:22:15;;;;;;;;;;;6.20;86.90;;;5.61;59.86;98243.16;5050156;28;19959;-48
2022/03/24 01:24:41;;;;;;;;;;;6.20;85.60;;;5.66;58.59;98235.28;5053051;28;20019;-48
2022/03/24 01:27:07;;;;;;;;;;;6.20;84.80;;;5.74;59.29;98233.50;5054922;28;19920;-47
2022/03/24 01:29:33;;;;;;;;;;;6.20;85.20;;;5.68;58.48;98233.53;5052930;28;19927;-47
2022/03/24 01:31:59;;;;;;;;;;;6.20;84.40;;;5.68;59.72;98223.94;5036581;28;20097;-47
2022/03/24 01:34:25;;;;;;;;;;;6.20;85.50;;;5.55;60.60;98219.63;5053074;28;19936;-46
2022/03/24 01:36:51;;;;;;;;;;;6.20;86.40;;;5.55;60.82;98227.47;5058067;28;19951;-50
2022/03/24 01:39:17;;;;;;;;;;;6.10;86.50;;;5.51;61.69;98228.38;5054141;28;20128;-46
2022/03/24 01:41:47;;;;;;;;;;;6.00;87.20;;;5.43;63.14;98225.75;5055894;28;20314;-49
2022/03/24 01:44:14;;;;;;;;;;;5.90;88.40;;;5.35;63.99;98230.16;5053308;28;20520;-50
2022/03/24 01:47:03;;;;;;;;;;;5.90;89.40;;;5.22;65.50;98216.22;5052294;28;20007;-52
2022/03/24 01:49:31;;;;;;;;;;;5.80;90.00;;;5.17;65.71;98215.38;5052941;28;19924;-49
2022/03/24 01:51:57;;;;;;;;;;;5.70;90.30;;;5.09;66.29;98218.00;5052308;28;20025;-48
2022/03/24 01:54:25;;;;;;;;;;;5.60;90.40;;;5.03;66.63;98214.56;5056699;28;20017;-49
2022/03/24 01:56:51;;;;;;;;;;;5.60;90.60;;;4.88;67.10;98203.25;5035432;28;20452;-52
2022/03/24 01:59:17;;;;;;;;;;;5.50;90.80;;;4.96;67.04;98227.63;5054959;28;19948;-45
2022/03/24 02:01:44;;;;;;;;;;;5.50;90.90;;;4.93;66.95;98222.38;5051637;28;20279;-45
2022/03/24 02:04:10;;;;;;;;;;;5.40;90.90;;;4.88;66.35;98224.16;5035762;28;20298;-48
2022/03/24 02:06:37;;;;;;;;;;;5.40;90.70;;;4.90;66.04;98230.25;5050834;28;19929;-50
2022/03/24 02:09:05;;;;;;;;;;;5.40;90.60;;;4.88;66.05;98225.88;5054503;28;19921;-51
2022/03/24 02:11:33;;;;;;;;;;;5.40;90.70;;;4.87;66.51;98226.78;5050123;28;19935;-49
2022/03/24 02:13:58;;;;;;;;;;;5.40;90.90;;;4.77;67.30;98211.09;5050688;28;19931;-51
2022/03/24 02:16:27;;;;;;;;;;;5.30;91.10;;;4.66;68.38;98207.59;5052667;28;19916;-46
2022/03/24 02:18:59;;;;;;;;;;;5.30;91.60;;;4.66;68.62;98209.34;5036932;28;20270;-47
2022/03/24 02:21:25;;;;;;;;;;;5.20;91.60;;;4.56;70.19;98217.19;5050705;28;19921;-50
2022/03/24 02:23:51;;;;;;;;;;;5.20;92.10;;;4.48;70.72;98218.06;5054043;28;19921;-47
2022/03/24 02:26:17;;;;;;;;;;;5.10;92.30;;;4.44;70.47;98208.50;5052251;28;20535;-47
2022/03/24 02:28:45;;;;;;;;;;;5.00;92.30;;;4.40;69.75;98215.44;5052921;28;20488;-45
2022/03/24 02:31:16;;;;;;;;;;;5.00;92.60;;;4.38;70.30;98220.66;5052584;28;20407;-49
2022/03/24 02:33:42;;;;;;;;;;;4.90;92.40;;;4.31;70.68;98208.47;5055126;28;19916;-48
2022/03/24 02:36:08;;;;;;;;;;;4.90;92.60;;;4.31;70.08;98211.09;5055285;28;19978;-46
2022/03/24 02:38:34;;;;;;;;;;;4.90;92.60;;;4.29;69.73;98214.53;5054602;28;19943;-49
2022/03/24 02:40:59;;;;;;;;;;;4.80;92.50;;;4.25;70.03;98205.84;5055414;28;20181;-50
2022/03/24 02:43:25;;;;;;;;;;;4.80;92.60;;;4.16;70.34;98206.72;5056286;28;19925;-47
2022/03/24 02:45:53;;;;;;;;;;;4.70;92.80;;;4.14;71.21;98205.81;5053048;28;22132;-47
2022/03/24 02:48:21;;;;;;;;;;;4.70;93.10;;;4.10;72.27;98200.63;5051807;28;19916;-52
2022/03/24 02:50:48;;;;;;;;;;;4.70;93.50;;;4.10;72.83;98198.88;5052580;28;19973;-50
2022/03/24 02:53:14;;;;;;;;;;;4.60;93.80;;;4.07;72.97;98205.81;5054492;28;20606;-50
2022/03/24 02:55:40;;;;;;;;;;;4.60;93.90;;;4.07;73.41;98211.91;5047158;28;19924;-49
2022/03/24 02:58:05;;;;;;;;;;;4.60;94.20;;;4.04;73.51;98211.91;5052289;28;19931;-47
2022/03/24 03:00:31;;;;;;;;;;;4.60;94.30;;;4.01;72.99;98210.16;5054795;28;20411;-47
2022/03/24 03:02:56;;;;;;;;;;;4.60;94.10;;;3.96;72.02;98209.28;5052048;28;19925;-50
2022/03/24 03:05:22;;;;;;;;;;;4.50;93.90;;;3.94;72.28;98216.22;5052965;28;19924;-47
2022/03/24 03:07:48;;;;;;;;;;;4.50;94.10;;;3.73;73.08;98187.47;5051910;28;19992;-46
2022/03/24 03:10:14;;;;;;;;;;;4.40;94.30;;;3.81;73.24;98210.09;5053020;28;20988;-50
2022/03/24 03:12:40;;;;;;;;;;;4.40;94.40;;;3.80;73.41;98220.53;5051328;28;19927;-47
2022/03/24 03:15:05;;;;;;;;;;;4.40;94.50;;;3.78;73.47;98214.44;5051776;28;20381;-52
2022/03/24 03:17:33;;;;;;;;;;;4.40;94.70;;;3.77;73.34;98215.34;5047602;28;19983;-50
2022/03/24 03:19:59;;;;;;;;;;;4.40;94.60;;;3.82;73.38;98219.69;5050148;28;20384;-50
2022/03/24 03:22:26;;;;;;;;;;;4.40;94.80;;;3.87;73.92;98221.44;5051504;28;19975;-49
2022/03/24 03:24:52;;;;;;;;;;;4.50;94.90;;;3.86;74.57;98209.25;5050728;28;19925;-50
2022/03/24 03:27:18;;;;;;;;;;;4.50;95.30;;;3.81;75.01;98204.88;5053312;28;19920;-44
2022/03/24 03:29:43;;;;;;;;;;;4.50;95.50;;;3.85;74.98;98211.00;5050312;28;19924;-47
2022/03/24 03:32:10;;;;;;;;;;;4.50;95.60;;;3.83;75.17;98213.59;5051308;28;19956;-50
2022/03/24 03:34:38;;;;;;;;;;;4.50;95.70;;;3.74;74.78;98205.75;5052003;28;19963;-50
2022/03/24 03:37:04;;;;;;;;;;;4.40;95.70;;;3.78;74.01;98210.09;5048794;28;19920;-47
2022/03/24 03:39:29;;;;;;;;;;;4.40;95.50;;;3.72;74.10;98211.84;5049831;28;19921;-47
2022/03/24 03:41:56;;;;;;;;;;;4.40;95.50;;;3.81;74.51;98217.94;5051161;28;19920;-49
2022/03/24 03:44:24;;;;;;;;;;;4.40;95.80;;;3.78;74.79;98215.31;5051486;28;19983;-47
2022/03/24 03:46:51;;;;;;;;;;;4.40;95.90;;;3.79;74.09;98219.69;5051789;28;20172;-46
2022/03/24 03:49:18;;;;;;;;;;;4.40;95.80;;;3.78;73.94;98219.66;5053528;28;20003;-47
2022/03/24 03:51:43;;;;;;;;;;;4.40;95.80;;;3.82;75.11;98222.31;5049497;28;19933;-51
2022/03/24 03:54:09;;;;;;;;;;;4.40;96.30;;;3.80;75.18;98220.53;5051567;28;20277;-48
2022/03/24 03:56:36;;;;;;;;;;;4.40;96.30;;;3.73;75.99;98218.78;5053304;28;19948;-48
2022/03/24 03:59:02;;;;;;;;;;;4.40;96.70;;;3.58;76.11;98199.59;5050824;28;19931;-53
2022/03/24 04:01:29;;;;;;;;;;;4.30;96.80;;;3.63;75.95;98213.53;5050938;28;20428;-52
2022/03/24 04:03:55;;;;;;;;;;;4.30;96.80;;;3.64;76.03;98219.59;5054168;28;20349;-50
2022/03/24 04:06:20;;;;;;;;;;;4.30;96.90;;;3.59;76.42;98210.91;5052793;28;19917;-47
2022/03/24 04:08:46;;;;;;;;;;;4.30;97.10;;;3.55;76.03;98210.03;5055030;28;19924;-51
2022/03/24 04:11:12;;;;;;;;;;;4.30;97.10;;;3.58;76.66;98223.06;5054560;28;20409;-48
2022/03/24 04:13:42;;;;;;;;;;;4.20;97.40;;;3.57;76.59;98221.34;5051576;28;19925;-50
2022/03/24 04:16:12;;;;;;;;;;;4.20;97.50;;;3.51;77.33;98223.03;5049875;28;20509;-45
2022/03/24 04:18:43;;;;;;;;;;;4.10;97.80;;;3.48;78.22;98225.63;5035689;28;19932;-50
2022/03/24 04:21:09;;;;;;;;;;;4.10;98.30;;;3.41;78.69;98229.94;5051543;28;19920;-51
2022/03/24 04:23:39;;;;;;;;;;;4.00;98.60;;;3.34;79.14;98228.16;5051715;28;19971;-50
2022/03/24 04:26:06;;;;;;;;;;;4.00;98.80;;;3.31;79.01;98236.00;5037692;28;19921;-53
2022/03/24 04:28:32;;;;;;;;;;;3.90;98.90;;;3.22;79.11;98229.84;5051758;28;19925;-50
2022/03/24 04:30:57;;;;;;;;;;;3.80;99.00;;;3.17;78.91;98235.91;5046370;28;19936;-52
2022/03/24 04:33:23;;;;;;;;;;;3.80;99.10;;;3.15;79.09;98235.03;5053687;28;20336;-48
2022/03/24 04:35:49;;;;;;;;;;;3.70;99.30;;;3.09;79.64;98222.84;5036545;28;20388;-49
2022/03/24 04:38:15;;;;;;;;;;;3.70;99.60;;;3.04;80.17;98235.81;5056750;28;19917;-49
2022/03/24 04:40:40;;;;;;;;;;;3.60;99.80;;;3.00;80.29;98231.47;5053125;28;21722;-47
2022/03/24 04:43:06;;;;;;;;;;;3.60;99.90;;;2.94;80.54;98228.81;5056813;28;19921;-48
2022/03/24 04:45:33;;;;;;;;;;;3.60;99.90;;;2.90;80.78;98231.41;5054360;28;20446;-50
2022/03/24 04:48:00;;;;;;;;;;;3.50;99.90;;;2.85;81.42;98232.25;5054117;28;20039;-49
2022/03/24 04:50:26;;;;;;;;;;;3.50;99.90;;;2.73;81.42;98219.13;5052756;28;20352;-47
2022/03/24 04:52:52;;;;;;;;;;;3.40;99.90;;;2.78;81.04;98237.38;5056647;28;19999;-46
2022/03/24 04:55:18;;;;;;;;;;;3.40;99.90;;;2.78;80.96;98235.66;5056054;28;19925;-47
2022/03/24 04:57:44;;;;;;;;;;;3.40;99.90;;;2.76;81.10;98233.91;5057158;28;19925;-47
2022/03/24 05:00:10;;;;;;;;;;;3.40;99.90;;;2.74;80.83;98228.66;5054873;28;19928;-49
2022/03/24 05:02:39;;;;;;;;;;;3.40;99.90;;;2.76;81.12;98234.75;5064065;22;19924;-84
2022/03/24 05:05:06;;;;;;;;;;;3.40;99.90;;;2.75;81.26;98234.78;5063285;28;19955;-84
2022/03/24 05:07:32;;;;;;;;;;;3.30;99.90;;;2.62;81.24;98219.03;5063186;28;19960;-84
2022/03/24 05:09:57;;;;;;;;;;;3.30;99.90;;;2.68;81.82;98237.31;5067139;28;19951;-84
2022/03/24 05:12:23;;;;;;;;;;;3.30;99.90;;;2.60;82.16;98227.69;5051761;28;20366;-84
2022/03/24 05:14:50;;;;;;;;;;;3.30;99.90;;;2.64;82.53;98235.56;5031902;28;20015;-84
2022/03/24 05:17:16;;;;;;;;;;;3.30;99.90;;;2.70;82.61;98239.06;5047886;28;19924;-84
2022/03/24 05:19:45;;;;;;;;;;;3.30;99.90;;;2.53;83.04;98215.47;5033644;28;19920;-84
2022/03/24 05:22:11;;;;;;;;;;;3.30;99.90;;;2.53;83.43;98210.28;5050186;28;20024;-83
2022/03/24 05:24:38;;;;;;;;;;;3.30;99.90;;;2.64;83.26;98224.28;5031126;28;19966;-84
2022/03/24 05:27:05;;;;;;;;;;;3.30;99.90;;;2.71;83.59;98232.97;5030284;28;19923;-84
2022/03/24 05:29:32;;;;;;;;;;;3.40;99.90;;;2.64;84.12;98224.28;5029007;28;20129;-83
2022/03/24 05:31:57;;;;;;;;;;;3.40;99.90;;;2.80;84.25;98240.84;5049636;28;20015;-83
2022/03/24 05:34:23;;;;;;;;;;;3.40;99.90;;;2.63;83.89;98205.16;5028292;28;20019;-84
2022/03/24 05:36:49;;;;;;;;;;;3.40;99.90;;;2.84;83.66;98247.88;5046231;28;20007;-84
2022/03/24 05:39:15;;;;;;;;;;;3.50;99.90;;;2.87;84.04;98240.03;5043076;28;19916;-83
2022/03/24 05:41:41;;;;;;;;;;;3.50;99.90;;;2.76;83.11;98221.72;5046014;28;19924;-84
2022/03/24 05:44:07;;;;;;;;;;;3.60;99.90;;;2.82;82.94;98219.19;5043348;28;19928;-84
2022/03/24 05:46:35;;;;;;;;;;;3.60;99.90;;;3.01;83.04;98248.81;5045553;28;20326;-84
2022/03/24 05:49:02;;;;;;;;;;;3.60;99.90;;;2.99;82.25;98240.13;5028761;28;19916;-84
2022/03/24 05:51:28;;;;;;;;;;;3.60;99.90;;;3.11;82.35;98248.91;5031163;28;20018;-84
2022/03/24 05:53:54;;;;;;;;;;;3.70;99.90;;;3.11;82.01;98243.72;5031100;28;20022;-83
2022/03/24 05:56:20;;;;;;;;;;;3.80;99.90;;;3.11;81.38;98235.88;5043977;28;20008;-82
2022/03/24 05:58:46;;;;;;;;;;;3.80;99.90;;;3.20;81.03;98242.00;5048088;28;19943;-84
2022/03/24 06:01:13;;;;;;;;;;;3.80;99.90;;;3.04;80.78;98211.50;5029713;28;19924;-83
2022/03/24 06:03:40;;;;;;;;;;;3.90;99.90;;;3.22;81.22;98240.28;5046979;28;20305;-84
2022/03/24 06:06:06;;;;;;;;;;;3.90;99.90;;;3.13;80.58;98219.38;5032787;28;19924;-84
2022/03/24 06:08:33;;;;;;;;;;;4.00;99.90;;;3.34;80.47;98247.31;5065435;28;19920;-83
2022/03/24 06:11:02;;;;;;;;;;;4.00;99.90;;;3.41;79.99;98250.81;5033257;28;19942;-84
2022/03/24 06:13:28;;;;;;;;;;;4.10;99.90;;;3.50;79.47;98257.81;5043816;28;19920;-84
2022/03/24 06:15:54;;;;;;;;;;;4.10;99.90;;;3.46;79.64;98249.09;5047581;28;20522;-84
2022/03/24 06:18:20;;;;;;;;;;;4.20;99.90;;;3.62;79.46;98263.09;5031365;28;19924;-84
2022/03/24 06:20:46;;;;;;;;;;;4.20;99.90;;;3.48;79.55;98238.66;5032959;28;19921;-84
2022/03/24 06:23:11;;;;;;;;;;;4.30;99.90;;;3.64;79.14;98248.31;5046107;28;20007;-83
2022/03/24 06:25:37;;;;;;;;;;;4.40;99.90;;;3.82;79.79;98268.38;5046909;28;20019;-84
2022/03/24 06:28:06;;;;;;;;;;;4.40;99.90;;;3.71;78.85;98244.84;5031856;28;19940;-88
2022/03/24 06:30:32;;;;;;;;;;;4.50;99.90;;;3.81;78.94;98251.84;5044214;28;20024;-84
2022/03/24 06:32:58;;;;;;;;;;;4.60;99.90;;;4.00;78.85;98267.56;5029678;28;19999;-84
2022/03/24 06:35:24;;;;;;;;;;;4.60;99.90;;;4.04;78.76;98266.75;5046888;28;19924;-84
2022/03/24 06:37:51;;;;;;;;;;;4.70;99.90;;;4.04;79.13;98248.47;5044494;28;19920;-84
2022/03/24 06:40:17;;;;;;;;;;;4.80;99.90;;;4.15;79.14;98256.31;5044822;28;19925;-84
2022/03/24 06:42:43;;;;;;;;;;;4.80;99.90;;;4.13;78.76;98256.31;5050543;28;19920;-83
2022/03/24 06:45:10;;;;;;;;;;;4.90;99.90;;;4.35;78.58;98275.50;5041248;28;19944;-84
2022/03/24 06:47:36;;;;;;;;;;;5.00;99.90;;;4.33;78.46;98256.34;5029526;28;20406;-84
2022/03/24 06:50:03;;;;;;;;;;;5.10;99.90;;;4.50;78.30;98271.16;5030497;28;20352;-84
2022/03/24 06:52:29;;;;;;;;;;;5.10;99.90;;;4.32;77.83;98228.47;5030605;28;19920;-84
2022/03/24 06:54:55;;;;;;;;;;;5.20;99.90;;;4.43;77.74;98241.53;5069828;28;19904;-83
2022/03/24 06:57:21;;;;;;;;;;;5.30;99.90;;;4.49;76.84;98230.25;5055276;28;20011;-84
2022/03/24 06:59:47;;;;;;;;;;;5.30;99.90;;;4.73;74.96;98261.59;5052345;28;20018;-83
2022/03/24 07:02:12;;;;;;;;;;;5.40;99.90;;;4.86;73.91;98264.22;5036004;28;19963;-84
2022/03/24 07:04:38;;;;;;;;;;;5.60;99.90;;;4.92;73.93;98265.09;5053995;28;19977;-84
2022/03/24 07:07:04;;;;;;;;;;;5.60;99.90;;;5.02;73.26;98270.31;5051568;28;20003;-83
2022/03/24 07:09:30;;;;;;;;;;;5.70;99.90;;;4.98;72.49;98248.53;5036472;28;19939;-84
2022/03/24 07:11:56;;;;;;;;;;;5.80;99.90;;;5.28;71.76;98289.47;5039477;28;19960;-84
2022/03/24 07:14:22;;;;;;;;;;;5.90;99.60;;;5.33;70.72;98294.69;5035628;28;20385;-84
2022/03/24 07:16:48;;;;;;;;;;;6.00;99.20;;;5.35;69.68;98287.72;5051194;28;20357;-85
2022/03/24 07:19:14;;;;;;;;;;;6.00;98.60;;;5.44;69.52;98286.84;5052747;28;19931;-82
2022/03/24 07:21:40;;;;;;;;;;;6.10;98.60;;;5.35;69.46;98254.56;5049854;28;19924;-84
2022/03/24 07:24:06;;;;;;;;;;;6.10;98.60;;;5.52;69.50;98278.06;5069143;28;20230;-83
2022/03/24 07:26:32;;;;;;;;;;;6.20;98.60;;;5.62;69.66;98273.69;5027053;28;19927;-84
2022/03/24 07:28:58;;;;;;;;;;;6.30;98.70;;;5.65;69.57;98268.44;5044756;28;19938;-84
2022/03/24 07:31:24;;;;;;;;;;;6.40;98.70;;;5.89;70.57;98282.31;5041058;28;19919;-83
2022/03/24 07:33:50;;;;;;;;;;;6.50;99.10;;;5.96;69.95;98280.56;5042588;28;19932;-84
2022/03/24 07:36:20;;;;;;;;;;;6.60;98.80;;;6.08;68.87;98270.03;5042016;28;19924;-84
2022/03/24 07:38:46;;;;;;;;;;;6.70;98.40;;;6.26;67.56;98288.28;5045343;28;19924;-82
2022/03/24 07:41:11;;;;;;;;;;;6.80;97.90;;;6.19;66.24;98246.41;5026231;28;19948;-82
2022/03/24 07:43:37;;;;;;;;;;;7.00;97.40;;;6.49;64.54;98282.03;5027302;28;19982;-83
2022/03/24 07:46:03;;;;;;;;;;;7.10;96.90;;;6.55;64.88;98263.66;5023480;28;20676;-82
2022/03/24 07:48:30;;;;;;;;;;;7.30;96.80;;;6.87;64.78;98288.75;5042435;28;19931;-82
2022/03/24 07:50:57;;;;;;;;;;;7.40;96.80;;;6.86;64.12;98273.91;5040832;28;19917;-82
2022/03/24 07:53:30;;;;;;;;;;;7.50;96.60;;;7.07;63.87;98291.22;5040044;28;20378;-82
2022/03/24 07:55:57;;;;;;;;;;;7.60;96.30;;;7.01;63.20;98272.91;5058569;28;19925;-81
2022/03/24 07:58:23;;;;;;;;;;;7.70;96.00;;;7.01;62.30;98258.00;5040643;28;19916;-82
2022/03/24 08:00:49;;;;;;;;;;;7.80;95.70;;;7.24;61.88;98280.56;5029894;28;19924;-81
2022/03/24 08:03:16;;;;;;;;;;;7.90;95.50;;;7.29;61.29;98277.91;5043595;28;19916;-81
2022/03/24 08:05:42;;;;;;;;;;;8.00;95.20;;;7.44;60.58;98294.34;5040871;28;19933;-82
2022/03/24 08:08:11;;;;;;;;;;;8.10;94.90;;;7.48;59.72;98276.81;5046865;28;19943;-82
2022/03/24 08:10:37;;;;;;;;;;;8.10;94.50;;;7.58;59.30;98280.22;5047537;28;19923;-82
2022/03/24 08:13:04;;;;;;;;;;;8.20;94.40;;;7.75;59.24;98296.66;5029067;28;19924;-83
2022/03/24 08:15:31;;;;;;;;;;;8.30;94.30;;;7.80;58.76;98286.09;5046404;28;19921;-83
2022/03/24 08:17:56;;;;;;;;;;;8.40;94.00;;;7.82;58.52;98281.69;5027937;28;19924;-82
2022/03/24 08:20:23;;;;;;;;;;;8.50;93.80;;;7.77;57.99;98255.50;5030057;28;19944;-82
2022/03/24 08:22:48;;;;;;;;;;;8.50;93.60;;;8.13;57.29;98299.69;5050538;28;19916;-82
2022/03/24 08:25:14;;;;;;;;;;;8.60;93.30;;;8.20;56.88;98286.47;5047387;28;19944;-82
2022/03/24 08:27:40;;;;;;;;;;;8.80;93.20;;;8.32;56.17;98281.94;5049573;28;19977;-82
2022/03/24 08:30:05;;;;;;;;;;;8.90;92.80;;;8.41;55.43;98266.88;5030424;28;20390;-82
2022/03/24 08:32:32;;;;;;;;;;;9.10;92.40;;;8.73;54.92;98298.91;5049455;28;19920;-86
2022/03/24 08:34:57;;;;;;;;;;;9.20;92.10;;;8.92;54.82;98310.88;5047189;28;19916;-82
2022/03/24 08:37:23;;;;;;;;;;;9.40;92.10;;;8.93;54.49;98286.28;5042381;28;19920;-82
2022/03/24 08:39:49;;;;;;;;;;;9.50;91.90;;;9.13;52.74;98282.47;5062975;28;20022;-82
2022/03/24 08:42:14;;;;;;;;;;;9.70;91.00;;;9.22;52.64;98282.31;5050112;28;19970;-82
2022/03/24 08:44:40;;;;;;;;;;;9.80;90.80;;;9.45;52.15;98302.09;5048944;28;19917;-82
2022/03/24 08:47:06;;;;;;;;;;;9.90;90.60;;;9.49;52.18;98275.72;5046909;28;19935;-83
2022/03/24 08:49:32;;;;;;;;;;;10.10;90.70;;;9.78;52.74;98299.72;5047319;28;19984;-82
2022/03/24 08:51:58;;;;;;;;;;;10.20;90.90;;;9.90;53.22;98288.97;5064061;28;19966;-82
2022/03/24 08:54:24;;;;;;;;;;;10.40;91.10;;;9.89;51.17;98272.28;5026736;28;20841;-82
2022/03/24 08:56:50;;;;;;;;;;;10.50;90.40;;;10.17;51.96;98298.06;5030289;28;19938;-82
2022/03/24 08:59:16;;;;;;;;;;;10.60;90.20;;;10.19;51.64;98274.31;5047246;28;19921;-82
2022/03/24 09:01:43;;;;;;;;;;;10.80;90.20;;;10.45;50.91;98303.66;5027452;28;20011;-82
2022/03/24 09:04:10;;;;;;;;;;;10.90;89.50;;;10.41;50.26;98283.53;5025850;28;20313;-82
2022/03/24 09:06:36;;;;;;;;;;;11.00;88.50;;;10.58;49.78;98295.47;5028045;28;20412;-82
2022/03/24 09:09:02;;;;;;;;;;;11.10;87.70;;;10.75;48.89;98308.25;5050167;28;19917;-82
2022/03/24 09:11:28;;;;;;;;;;;11.20;86.80;;;10.86;47.89;98314.19;5031432;28;20385;-82
2022/03/24 09:13:54;;;;;;;;;;;11.30;85.00;;;10.98;46.95;98310.34;5064759;28;19952;-82
2022/03/24 09:16:20;;;;;;;;;;;11.40;83.60;;;11.07;46.05;98308.38;5082825;28;19920;-82
2022/03/24 09:18:46;;;;;;;;;;;11.50;82.40;;;11.12;46.20;98302.97;5051954;28;21852;-83
2022/03/24 09:21:12;;;;;;;;;;;11.50;82.10;;;11.07;45.19;98260.88;5042938;28;19944;-82
2022/03/24 09:23:38;;;;;;;;;;;11.70;80.80;;;11.18;44.84;98271.16;5045130;28;19921;-82
2022/03/24 09:26:03;;;;;;;;;;;11.80;79.70;;;11.38;44.71;98293.53;5048773;28;20277;-87
2022/03/24 09:28:29;;;;;;;;;;;11.90;79.00;;;11.56;44.43;98308.03;5049646;28;19927;-84
2022/03/24 09:30:56;;;;;;;;;;;11.90;79.40;;;11.60;43.82;98281.47;5043589;28;20425;-83
2022/03/24 09:33:21;;;;;;;;;;;12.00;78.10;;;11.90;43.01;98305.38;5043749;28;19931;-82
2022/03/24 09:35:48;;;;;;;;;;;12.20;77.20;;;12.11;41.91;98314.47;5031488;28;19924;-82
2022/03/24 09:38:14;;;;;;;;;;;12.40;75.10;;;12.13;39.67;98304.75;5046831;28;19977;-83
2022/03/24 09:40:40;;;;;;;;;;;12.50;71.60;;;12.13;39.68;98317.97;5045074;28;20615;-83
2022/03/24 09:43:07;;;;;;;;;;;12.50;70.40;;;12.15;33.78;98317.88;5043357;28;19951;-82
2022/03/24 09:45:33;;;;;;;;;;;12.50;62.80;;;12.03;34.78;98287.41;5043872;28;19920;-83
2022/03/24 09:47:58;;;;;;;;;;;12.50;61.20;;;12.17;35.23;98305.50;5028555;28;20473;-82
2022/03/24 09:50:27;;;;;;;;;;;12.60;61.80;;;12.33;34.26;98308.59;5030379;28;19973;-82
2022/03/24 09:52:53;;;;;;;;;;;12.70;60.60;;;12.33;34.97;98300.66;5030509;28;19924;-83
2022/03/24 09:55:19;;;;;;;;;;;12.80;60.80;;;12.38;33.62;98310.19;5040104;28;20382;-83
2022/03/24 09:57:46;;;;;;;;;;;12.80;58.90;;;12.53;34.20;98313.28;5043895;28;20027;-83
2022/03/24 10:00:13;;;;;;;;;;;12.90;59.40;;;12.63;34.04;98306.75;5058549;28;19930;-83
2022/03/24 10:02:42;;;;;;;;;;;13.00;59.20;;;12.60;32.96;98297.16;5041987;28;19920;-83
2022/03/24 10:05:08;;;;;;;;;;;13.10;57.80;;;12.77;33.77;98299.25;5042951;28;20104;-82
2022/03/24 10:07:44;;;;;;;;;;;13.20;58.40;;;12.73;32.88;98284.41;5046239;28;19917;-82
2022/03/24 10:10:22;;;;;;;;;;;13.30;57.30;;;13.03;33.57;98291.41;5029087;28;20003;-83
2022/03/24 10:12:47;;;;;;;;;;;13.30;58.10;;;13.14;33.39;98306.03;5026325;28;19928;-82
2022/03/24 10:15:13;;;;;;;;;;;13.50;57.70;;;13.20;33.27;98298.81;5026659;28;20245;-82
2022/03/24 10:17:49;;;;;;;;;;;13.60;57.70;;;13.28;33.45;98296.75;5044060;28;19924;-82
2022/03/24 10:20:15;;;;;;;;;;;13.60;57.70;;;13.47;33.63;98294.38;5039976;28;20057;-82
2022/03/24 10:22:56;;;;;;;;;;;13.80;57.80;;;13.54;32.00;98304.72;5043663;28;19954;-83
2022/03/24 10:25:26;;;;;;;;;;;13.80;56.50;;;13.48;31.25;98289.03;5043889;28;20327;-83
2022/03/24 10:28:05;;;;;;;;;;;13.90;54.50;;;13.54;34.05;98312.66;5026649;28;20612;-83
2022/03/24 10:30:48;;;;;;;;;;;13.90;57.90;;;13.45;32.26;98282.97;5063097;28;19924;-83
2022/03/24 10:33:30;;;;;;;;;;;13.90;56.30;;;13.58;31.30;98304.63;5062362;28;20267;-82
2022/03/24 10:36:04;;;;;;;;;;;13.90;54.40;;;13.53;31.49;98303.00;5045230;28;19927;-82
2022/03/24 10:38:31;;;;;;;;;;;13.90;54.20;;;13.67;29.80;98305.16;5066110;28;19925;-83
2022/03/24 10:40:57;;;;;;;;;;;14.00;52.50;;;13.79;30.30;98303.88;5049509;28;20227;-82
2022/03/24 10:43:23;;;;;;;;;;;14.00;52.60;;;13.65;31.76;98274.34;5038029;28;20402;-82
2022/03/24 10:45:48;;;;;;;;;;;14.10;54.20;;;13.79;31.72;98277.34;5027133;28;20031;-82
2022/03/24 10:48:21;;;;;;;;;;;14.10;54.20;;;13.97;30.04;98297.03;5044411;28;19923;-84
2022/03/24 10:50:46;;;;;;;;;;;14.20;52.60;;;14.00;30.50;98293.41;5039493;28;20067;-82
2022/03/24 10:53:15;;;;;;;;;;;14.30;52.80;;;13.89;30.84;98284.06;5045290;28;20310;-82
2022/03/24 10:55:44;;;;;;;;;;;14.30;52.90;;;14.02;31.10;98287.13;5029486;28;19981;-82
2022/03/24 10:58:20;;;;;;;;;;;14.30;53.60;;;14.04;30.81;98271.16;5062391;28;20054;-82
2022/03/24 11:00:48;;;;;;;;;;;14.40;53.00;;;14.23;30.74;98293.44;5044677;28;19970;-82
2022/03/24 11:03:15;;;;;;;;;;;14.50;53.20;;;14.36;30.50;98277.91;5041995;28;20425;-85
2022/03/24 11:05:41;;;;;;;;;;;14.60;52.50;;;14.39;30.93;98268.94;5039250;28;20437;-84
2022/03/24 11:08:09;;;;;;;;;;;14.70;53.10;;;14.45;29.27;98268.75;5040412;28;19947;-85
2022/03/24 11:10:47;;;;;;;;;;;14.80;50.80;;;14.58;28.95;98279.75;5058170;28;20020;-85
2022/03/24 11:13:25;;;;;;;;;;;14.90;50.60;;;14.58;29.65;98288.59;5020331;28;19955;-85
2022/03/24 11:15:52;;;;;;;;;;;14.90;50.90;;;14.29;30.15;98234.81;5040742;28;20457;-85
2022/03/24 11:18:21;;;;;;;;;;;14.90;51.80;;;14.61;29.81;98283.16;5037379;28;19925;-85
2022/03/24 11:20:46;;;;;;;;;;;15.00;51.00;;;14.60;29.71;98273.47;5039343;28;19920;-86
2022/03/24 11:23:31;;;;;;;;;;;15.00;51.30;;;14.82;29.01;98281.47;5039754;28;19931;-86
2022/03/24 11:25:57;;;;;;;;;;;15.00;49.90;;;14.79;27.85;98265.63;5020453;28;19924;-85
2022/03/24 11:28:23;;;;;;;;;;;15.10;49.20;;;14.96;26.61;98277.38;5021219;28;19931;-85